Список аэропортов
Фактическая погода:

21:00
Температура: +17.4°C
Ветер: штиль
Видимость: 10 км
Давление: 751 мм рт. ст.
1000.7 гПа (-0.3)

Облачность: 2-3/0
перистые
выше 2,5 км
Время (МСК)Темп. СВетерВлажностьДавлениеОблачностьОсадки
21:00+16З, 2 м/с45%1017 гПаоблачно
22:00+14З, 2 м/с52%1017 гПас прояснениями
23:00+13З, 2 м/с59%1017 гПаоблачно
27 июня
00:00+13З, 1 м/с64%1016 гПаоблачно
01:00+12З, 1 м/с69%1016 гПаоблачно
02:00+12З, 1 м/с72%1016 гПаоблачно
03:00+12З, 1 м/с74%1016 гПаоблачно
04:00+12З, 1 м/с73%1015 гПаоблачно
05:00+13Штиль 69%1015 гПаоблачно
06:00+16ЮВ, 1 м/с56%1014 гПаоблачно
07:00+18ЮВ, 2 м/с41%1014 гПаоблачно
08:00+19Ю, 3 м/с36%1013 гПас прояснениями
09:00+20Ю, 3 м/с34%1013 гПаоблачно
10:00+20Ю, 3 м/с35%1012 гПаоблачносл. дождь
11:00+20Ю, 3 м/с37%1011 гПаоблачносл. дождь
12:00+20Ю, 2 м/с37%1011 гПаоблачносл. дождь
13:00+20Ю, 2 м/с39%1011 гПаоблачносл. дождь
14:00+20Ю, 2 м/с41%1010 гПаоблачносл. дождь
15:00+20ЮВ, 2 м/с42%1010 гПаоблачнодождь
16:00+18В, 3 м/с55%1009 гПаоблачнодождь
17:00+18В, 2 м/с64%1008 гПаоблачнодождь
18:00+18В, 2 м/с70%1008 гПаоблачнодождь
19:00+17В, 2 м/с76%1007 гПаоблачносл. дождь
20:00+16В, 2 м/с79%1007 гПаоблачно
21:00+16В, 2 м/с78%1007 гПаоблачно
22:00+16В, 3 м/с74%1007 гПаоблачно
23:00+16В, 3 м/с69%1006 гПаоблачно
28 июня
00:00+16В, 4 м/с62%1006 гПаоблачнодождь
01:00+16В, 4 м/с69%1006 гПаоблачнодождь
02:00+15В, 4 м/с79%1005 гПаоблачнодождь
03:00+14В, 4 м/с80%1005 гПаоблачносл. дождь
04:00+14В, 4 м/с82%1004 гПаоблачносл. дождь
05:00+14В, 4 м/с82%1004 гПаоблачносл. дождь
06:00+14В, 5 м/с82%1004 гПаоблачно
07:00+15В, 5 м/с80%1003 гПаоблачно
08:00+17В, 5 м/с69%1003 гПаоблачно
09:00+21В, 6 м/с52%1002 гПаоблачно
10:00+23В, 6 м/с45%1002 гПаоблачно
11:00+25В, 6 м/с40%1001 гПаоблачно
12:00+26В, 7 м/с35%1000 гПаоблачно
13:00+28В, 7 м/с31%1000 гПаоблачно
14:00+29В, 8 м/с26%999 гПамалооблачно
15:00+30В, 8 м/с22%998 гПас прояснениями
16:00+30В, 8 м/с21%997 гПаоблачно
17:00+30В, 8 м/с20%997 гПаоблачно
18:00+30В, 7 м/с21%996 гПаоблачно
19:00+29В, 6 м/с25%996 гПаоблачно
20:00+28В, 7 м/с28%996 гПаоблачно
21:00+27В, 8 м/с29%995 гПас прояснениями